Time;durP1;ratioP1;P1;durP2;ratioP2;P2;SDS_P1;SDS_P2;PMS_P1;PMS_P2;Temp;Humidity;BMP_temperature;BMP_pressure;BME280_temperature;BME280_humidity;BME280_pressure;Samples;Min_cycle;Max_cycle;Signal;HPM_P1;HPM_P2
2022/01/03 00:02:00;;;;;;;30.30;16.00;;;;;3.78;97524.40;;;;111734;1241;41125;-71
2022/01/03 00:04:29;;;;;;;28.40;14.90;;;;;3.80;97527.40;;;;112048;1241;41449;-70
2022/01/03 00:07:00;;;;;;;26.60;14.50;;;;;3.80;97519.80;;;;112019;1241;41605;-71
2022/01/03 00:09:31;;;;;;;25.20;14.00;;;;;3.90;97522.00;;;;112173;1240;41234;-72
2022/01/03 00:12:00;;;;;;;28.10;14.20;;;;;3.90;97529.40;;;;111789;1244;41391;-70
2022/01/03 00:14:31;;;;;;;25.50;13.60;;;;;3.90;97529.20;;;;111896;1241;41165;-70
2022/01/03 00:17:00;;;;;;;26.60;13.60;;;;;4.00;97527.40;;;;111676;1241;41607;-71
2022/01/03 00:19:30;;;;;;;26.40;14.10;;;;;4.00;97510.00;;;;112030;1240;41028;-69
2022/01/03 00:22:09;;;;;;;25.80;14.50;;;;;4.08;97488.80;;;;112023;1240;41237;-69
2022/01/03 00:24:41;;;;;;;33.30;17.40;;;;;4.10;97472.60;;;;112034;1240;41579;-71
2022/01/03 00:27:14;;;;;;;29.50;15.30;;;;;4.10;97474.60;;;;111854;1240;41122;-71
2022/01/03 00:29:47;;;;;;;22.70;12.30;;;;;4.10;97460.00;;;;111863;1241;41546;-69
2022/01/03 00:32:17;;;;;;;26.40;13.40;;;;;4.10;97449.00;;;;112011;1240;41220;-71
2022/01/03 00:34:47;;;;;;;30.30;13.60;;;;;4.10;97437.20;;;;111973;1240;41134;-70
2022/01/03 00:37:18;;;;;;;32.00;15.10;;;;;4.20;97423.60;;;;111881;1241;42054;-69
2022/01/03 00:39:48;;;;;;;;;;;;;4.18;97400.40;;;;111898;1241;41077;-69
2022/01/03 00:42:18;;;;;;;33.60;17.10;;;;;4.10;97400.00;;;;112050;1239;41924;-66
2022/01/03 00:44:48;;;;;;;36.60;16.40;;;;;4.10;97415.60;;;;111900;1241;40728;-69
2022/01/03 00:47:18;;;;;;;33.70;15.90;;;;;4.10;97410.60;;;;111840;1241;41699;-70
2022/01/03 00:49:47;;;;;;;34.10;15.50;;;;;4.10;97406.20;;;;112107;1240;41128;-67
2022/01/03 00:52:17;;;;;;;35.80;18.30;;;;;4.10;97405.00;;;;111892;1241;41160;-66
2022/01/03 00:54:47;;;;;;;41.00;20.40;;;;;4.10;97411.40;;;;111833;1241;41572;-71
2022/01/03 00:57:30;;;;;;;36.10;17.50;;;;;4.12;97419.20;;;;111987;1241;41730;-70
2022/01/03 01:00:05;;;;;;;35.70;17.50;;;;;4.10;97424.60;;;;111948;1241;41134;-70
2022/01/03 01:02:36;;;;;;;34.30;16.50;;;;;4.20;97435.40;;;;111712;1241;41147;-68
2022/01/03 01:05:06;;;;;;;29.40;13.90;;;;;4.20;97426.80;;;;111965;1241;41608;-69
2022/01/03 01:07:39;;;;;;;29.40;14.50;;;;;4.20;97427.00;;;;111985;1239;42288;-68
2022/01/03 01:10:08;;;;;;;29.60;13.70;;;;;4.20;97429.00;;;;112124;1241;41354;-71
2022/01/03 01:12:39;;;;;;;39.80;14.70;;;;;4.28;97440.80;;;;111906;1241;41604;-71
2022/01/03 01:15:09;;;;;;;32.60;14.20;;;;;4.30;97441.00;;;;112193;1241;41356;-70
2022/01/03 01:17:41;;;;;;;31.90;13.70;;;;;4.30;97447.60;;;;111905;1240;41923;-69
2022/01/03 01:20:15;;;;;;;;;;;;;4.30;97450.80;;;;111878;1241;43013;-70
2022/01/03 01:22:46;;;;;;;27.60;11.60;;;;;4.30;97460.60;;;;111703;1242;41248;-70
2022/01/03 01:27:49;;;;;;;28.20;13.20;;;;;4.30;97477.00;;;;111877;1240;42006;-67
2022/01/03 01:30:22;;;;;;;25.70;12.50;;;;;4.40;97465.00;;;;111858;1241;42288;-70
2022/01/03 01:33:07;;;;;;;29.90;13.90;;;;;4.40;97444.60;;;;111837;1242;42167;-68
2022/01/03 01:35:42;;;;;;;32.00;16.40;;;;;4.48;97411.80;;;;111801;1241;41260;-69
2022/01/03 01:38:22;;;;;;;34.00;16.90;;;;;4.40;97402.80;;;;111876;1241;41873;-69
2022/01/03 01:40:55;;;;;;;34.40;17.00;;;;;4.40;97396.20;;;;112190;1241;41687;-71
2022/01/03 01:43:36;;;;;;;29.10;14.50;;;;;4.40;97403.20;;;;112091;1239;41558;-69
2022/01/03 01:46:10;;;;;;;29.20;13.10;;;;;4.40;97404.00;;;;111786;1241;41246;-71
2022/01/03 01:48:44;;;;;;;25.50;12.10;;;;;4.40;97394.20;;;;111882;1241;41377;-71
2022/01/03 01:51:16;;;;;;;27.80;12.70;;;;;4.50;97393.20;;;;111753;1241;41251;-70
2022/01/03 01:53:52;;;;;;;28.90;13.40;;;;;4.50;97394.00;;;;111417;1244;41153;-69
2022/01/03 01:56:27;;;;;;;27.50;13.00;;;;;4.50;97399.00;;;;111777;1241;41377;-71
2022/01/03 01:59:13;;;;;;;30.70;13.90;;;;;4.50;97408.00;;;;111723;1241;43108;-68
2022/01/03 02:01:48;;;;;;;33.60;14.50;;;;;4.50;97412.40;;;;111490;1241;41224;-69
2022/01/03 02:04:34;;;;;;;26.70;13.00;;;;;4.60;97409.20;;;;111674;1244;41259;-70
2022/01/03 02:07:48;;;;;;;27.20;12.50;;;;;4.60;97403.60;;;;111704;1241;41318;-71
2022/01/03 02:10:24;;;;;;;24.10;11.10;;;;;4.60;97399.20;;;;111577;1244;41153;-71
2022/01/03 02:12:55;;;;;;;25.20;10.50;;;;;4.70;97403.60;;;;111747;1241;41171;-71
2022/01/03 02:15:31;;;;;;;22.80;9.80;;;;;4.70;97405.00;;;;111764;1241;41242;-68
2022/01/03 02:18:02;;;;;;;25.80;11.60;;;;;4.78;97384.40;;;;111654;1241;41149;-71
2022/01/03 02:20:32;;;;;;;87.40;16.80;;;;;4.80;97379.40;;;;111691;1241;41253;-71
2022/01/03 02:23:06;;;;;;;32.50;13.90;;;;;4.90;97393.20;;;;111611;1243;41263;-71
2022/01/03 02:25:43;;;;;;;63.60;19.00;;;;;4.80;97385.40;;;;111780;1242;41148;-71
2022/01/03 02:28:20;;;;;;;34.60;14.30;;;;;4.80;97376.40;;;;111259;1244;41156;-67
2022/01/03 02:31:03;;;;;;;31.00;14.20;;;;;4.80;97378.00;;;;111587;1242;42121;-72
2022/01/03 02:33:42;;;;;;;27.70;12.50;;;;;4.80;97372.80;;;;111525;1241;41188;-70
2022/01/03 02:36:26;;;;;;;31.50;13.50;;;;;4.86;97367.60;;;;111127;1244;41254;-66
2022/01/03 02:39:10;;;;;;;30.20;12.70;;;;;4.90;97372.60;;;;111798;1241;42195;-70
2022/01/03 02:41:56;;;;;;;26.00;11.60;;;;;4.90;97365.80;;;;111385;1241;41251;-68
2022/01/03 02:44:47;;;;;;;25.80;11.40;;;;;4.90;97360.40;;;;111345;1244;41615;-67
2022/01/03 02:48:00;;;;;;;29.40;11.70;;;;;4.92;97359.80;;;;111272;1244;41221;-73
2022/01/03 02:50:43;;;;;;;32.30;13.50;;;;;5.00;97352.60;;;;111425;1242;40728;-68
2022/01/03 02:53:26;;;;;;;29.20;12.70;;;;;5.00;97341.20;;;;111568;1242;41146;-65
2022/01/03 02:56:15;;;;;;;38.60;14.10;;;;;5.00;97339.40;;;;111291;1244;41549;-69
2022/01/03 02:59:11;;;;;;;33.70;14.80;;;;;5.00;97340.40;;;;111667;1244;40879;-69
2022/01/03 03:02:08;;;;;;;43.60;15.10;;;;;5.00;97332.60;;;;111378;1244;41620;-71
2022/01/03 03:05:04;;;;;;;36.30;14.10;;;;;5.00;97326.00;;;;111476;1240;41138;-67
2022/01/03 03:07:50;;;;;;;34.80;12.20;;;;;4.98;97323.20;;;;111322;1244;41145;-73
2022/01/03 03:10:30;;;;;;;28.60;11.80;;;;;4.90;97320.20;;;;111393;1242;42145;-65
2022/01/03 03:13:20;;;;;;;31.30;12.80;;;;;4.92;97319.40;;;;111381;1244;41142;-72
2022/01/03 03:16:25;;;;;;;31.90;12.30;;;;;4.98;97320.40;;;;111435;1244;41729;-66
2022/01/03 03:19:10;;;;;;;25.40;11.00;;;;;5.00;97309.60;;;;111640;1242;41160;-74
2022/01/03 03:22:00;;;;;;;26.60;11.10;;;;;5.00;97316.40;;;;111192;1244;42504;-72
2022/01/03 03:25:16;;;;;;;28.50;10.80;;;;;5.00;97313.20;;;;111861;1241;40722;-74
2022/01/03 03:28:19;;;;;;;25.60;10.70;;;;;5.00;97311.60;;;;111515;1242;40727;-69
2022/01/03 03:31:43;;;;;;;25.10;10.00;;;;;5.02;97299.40;;;;111314;1242;41179;-67
2022/01/03 03:35:02;;;;;;;26.40;10.60;;;;;5.10;97303.40;;;;111589;1244;41762;-68
2022/01/03 03:37:54;;;;;;;65.70;13.70;;;;;5.10;97296.00;;;;111521;1244;41147;-67
2022/01/03 03:40:40;;;;;;;37.50;12.30;;;;;5.10;97291.40;;;;111272;1242;41148;-73
2022/01/03 03:43:38;;;;;;;46.50;11.00;;;;;5.10;97284.00;;;;111353;1244;42056;-66
2022/01/03 03:46:29;;;;;;;24.10;9.80;;;;;5.10;97288.40;;;;111405;1242;41175;-66
2022/01/03 03:49:41;;;;;;;88.00;12.00;;;;;5.10;97292.60;;;;111574;1244;41296;-74
2022/01/03 03:52:28;;;;;;;54.10;11.60;;;;;5.10;97288.60;;;;111126;1243;41720;-74
2022/01/03 03:55:23;;;;;;;35.80;9.40;;;;;5.10;97285.40;;;;111651;1242;41126;-67
2022/01/03 03:58:14;;;;;;;55.20;10.40;;;;;5.10;97289.80;;;;111509;1243;41144;-72
2022/01/03 04:00:54;;;;;;;33.90;10.00;;;;;5.10;97278.60;;;;111263;1244;41810;-66
2022/01/03 04:03:51;;;;;;;108.60;13.80;;;;;5.10;97273.60;;;;111565;1244;41723;-72
2022/01/03 04:06:54;;;;;;;37.50;10.30;;;;;5.10;97267.80;;;;111418;1244;41150;-73
2022/01/03 04:09:33;;;;;;;29.30;9.20;;;;;5.10;97263.80;;;;111669;1242;41596;-70
2022/01/03 04:12:19;;;;;;;20.20;7.70;;;;;5.10;97264.40;;;;111519;1243;41263;-74
2022/01/03 04:14:56;;;;;;;28.10;8.50;;;;;5.10;97265.20;;;;111524;1244;41621;-66
2022/01/03 04:17:39;;;;;;;33.90;8.80;;;;;5.10;97255.40;;;;111481;1242;41264;-72
2022/01/03 04:20:15;;;;;;;63.10;7.20;;;;;5.10;97265.20;;;;111487;1244;41136;-72
2022/01/03 04:23:20;;;;;;;24.60;6.50;;;;;5.10;97263.80;;;;111541;1244;41262;-73
2022/01/03 04:26:00;;;;;;;15.10;6.30;;;;;5.10;97271.60;;;;111211;1245;41602;-69
2022/01/03 04:28:51;;;;;;;22.30;7.50;;;;;5.10;97279.60;;;;111303;1244;41211;-72
2022/01/03 04:31:24;;;;;;;47.90;8.40;;;;;5.10;97276.00;;;;111531;1244;41151;-66
2022/01/03 04:34:08;;;;;;;35.60;7.30;;;;;5.10;97271.20;;;;111583;1244;41131;-70
2022/01/03 04:36:56;;;;;;;19.20;6.60;;;;;5.10;97283.00;;;;111340;1241;41614;-68
2022/01/03 04:39:38;;;;;;;24.50;7.10;;;;;5.10;97282.80;;;;111543;1244;41163;-71
2022/01/03 04:42:15;;;;;;;44.50;6.80;;;;;5.10;97272.60;;;;111318;1244;41616;-69
2022/01/03 04:44:56;;;;;;;37.30;6.20;;;;;5.10;97269.20;;;;111559;1240;41965;-72
2022/01/03 04:47:36;;;;;;;34.80;5.90;;;;;5.10;97258.40;;;;111435;1244;41227;-68
2022/01/03 04:50:13;;;;;;;24.60;5.90;;;;;5.08;97248.80;;;;111499;1244;41128;-66
2022/01/03 04:52:53;;;;;;;26.80;6.40;;;;;5.00;97246.20;;;;111514;1244;41416;-72
2022/01/03 04:55:30;;;;;;;17.20;5.70;;;;;5.00;97261.40;;;;111497;1244;41129;-70
2022/01/03 04:58:01;;;;;;;14.30;5.90;;;;;5.00;97261.60;;;;111461;1243;41781;-71
2022/01/03 05:00:58;;;;;;;13.70;5.50;;;;;4.92;97262.20;;;;111326;1244;41135;-71
2022/01/03 05:03:33;;;;;;;11.70;4.40;;;;;4.90;97256.00;;;;111438;1243;42177;-73
2022/01/03 05:06:17;;;;;;;11.30;4.60;;;;;4.90;97251.20;;;;111243;1242;41589;-72
2022/01/03 05:08:58;;;;;;;12.10;4.20;;;;;4.90;97261.20;;;;111334;1244;41245;-70
2022/01/03 05:11:42;;;;;;;17.90;4.70;;;;;4.90;97263.80;;;;111361;1244;40759;-69
2022/01/03 05:14:17;;;;;;;19.90;5.20;;;;;4.90;97258.60;;;;111259;1244;42654;-70
2022/01/03 05:16:59;;;;;;;18.40;4.80;;;;;4.90;97262.80;;;;111075;1246;41181;-72
2022/01/03 05:19:30;;;;;;;11.60;4.60;;;;;4.90;97254.20;;;;111428;1244;41599;-67
2022/01/03 05:22:28;;;;;;;19.60;5.00;;;;;4.80;97227.80;;;;111524;1244;41161;-69
2022/01/03 05:25:05;;;;;;;14.30;4.50;;;;;4.80;97224.00;;;;111199;1246;41135;-71
2022/01/03 05:27:37;;;;;;;10.40;4.40;;;;;4.80;97217.20;;;;111486;1244;41263;-70
2022/01/03 05:30:08;;;;;;;12.70;4.60;;;;;4.80;97216.60;;;;111435;1244;41152;-71
2022/01/03 05:32:42;;;;;;;62.40;7.70;;;;;4.80;97232.20;;;;111273;1244;42670;-67
2022/01/03 05:35:17;;;;;;;15.00;4.80;;;;;4.80;97237.20;;;;111237;1244;41283;-66
2022/01/03 05:37:55;;;;;;;16.10;5.50;;;;;4.80;97230.60;;;;111014;1244;41954;-75
2022/01/03 05:40:28;;;;;;;10.60;4.40;;;;;4.76;97226.60;;;;111355;1244;41242;-67
2022/01/03 05:43:01;;;;;;;14.90;5.30;;;;;4.70;97225.20;;;;111431;1243;41263;-69
2022/01/03 05:45:35;;;;;;;14.10;5.00;;;;;4.70;97214.20;;;;111200;1244;41796;-68
2022/01/03 05:48:06;;;;;;;15.40;5.90;;;;;4.70;97221.40;;;;111566;1243;41137;-69
2022/01/03 05:50:36;;;;;;;11.70;4.90;;;;;4.68;97204.40;;;;111245;1244;41600;-74
2022/01/03 05:53:06;;;;;;;13.00;4.90;;;;;4.60;97194.80;;;;111445;1241;42349;-70
2022/01/03 05:55:36;;;;;;;18.20;5.30;;;;;4.60;97196.60;;;;111616;1242;41246;-72
2022/01/03 05:58:08;;;;;;;27.40;6.00;;;;;4.58;97193.80;;;;111499;1244;41121;-72
2022/01/03 06:00:46;;;;;;;16.70;5.70;;;;;4.50;97194.40;;;;111312;1244;41745;-75
2022/01/03 06:03:33;;;;;;;13.40;5.30;;;;;4.50;97208.40;;;;111212;1244;41160;-70
2022/01/03 06:06:31;;;;;;;19.60;5.80;;;;;4.50;97231.60;;;;111287;1244;41231;-66
2022/01/03 06:09:17;;;;;;;13.20;5.10;;;;;4.54;97242.40;;;;111385;1241;41139;-71
2022/01/03 06:12:02;;;;;;;12.60;5.00;;;;;4.60;97240.60;;;;111481;1242;41270;-66
2022/01/03 06:14:46;;;;;;;11.50;4.60;;;;;4.60;97244.40;;;;111196;1241;41383;-70
2022/01/03 06:17:36;;;;;;;12.80;5.10;;;;;4.60;97236.80;;;;111185;1245;41139;-70
2022/01/03 06:20:13;;;;;;;16.30;5.50;;;;;4.70;97246.80;;;;111548;1244;41150;-69
2022/01/03 06:22:54;;;;;;;16.70;7.00;;;;;4.70;97240.60;;;;111286;1244;41131;-73
2022/01/03 06:25:50;;;;;;;20.70;6.40;;;;;4.64;97225.40;;;;111594;1241;41596;-63
2022/01/03 06:28:56;;;;;;;16.10;6.50;;;;;4.60;97212.80;;;;111470;1244;42776;-74
2022/01/03 06:31:46;;;;;;;12.30;5.50;;;;;4.50;97208.80;;;;111342;1244;41762;-71
2022/01/03 06:34:26;;;;;;;14.20;5.60;;;;;4.50;97207.20;;;;111509;1244;42485;-73
2022/01/03 06:37:03;;;;;;;13.90;5.60;;;;;4.40;97196.60;;;;111301;1244;41285;-67
2022/01/03 06:39:53;;;;;;;16.40;5.90;;;;;4.40;97199.20;;;;111523;1243;41600;-73
2022/01/03 06:43:00;;;;;;;20.80;5.90;;;;;4.40;97203.20;;;;111399;1244;41037;-73
2022/01/03 06:45:35;;;;;;;16.20;5.80;;;;;4.40;97212.40;;;;111276;1244;41243;-75
2022/01/03 06:48:23;;;;;;;16.30;6.80;;;;;4.40;97198.00;;;;111832;1243;40795;-72
2022/01/03 06:51:10;;;;;;;20.60;7.50;;;;;4.40;97219.40;;;;111317;1243;41440;-71
2022/01/03 06:53:55;;;;;;;24.70;8.40;;;;;4.40;97242.00;;;;110981;1245;42343;-68
2022/01/03 06:56:25;;;;;;;23.60;8.20;;;;;4.50;97263.60;;;;111366;1244;41488;-68
2022/01/03 06:59:12;;;;;;;25.60;7.00;;;;;4.50;97249.60;;;;111512;1244;41133;-71
2022/01/03 07:02:12;;;;;;;17.00;6.80;;;;;4.50;97241.60;;;;111143;1244;41140;-67
2022/01/03 07:04:56;;;;;;;16.00;7.40;;;;;4.50;97220.40;;;;111403;1244;41265;-67
2022/01/03 07:07:33;;;;;;;14.70;6.50;;;;;4.50;97245.00;;;;111325;1244;41428;-65
2022/01/03 07:10:20;;;;;;;14.10;5.90;;;;;4.50;97249.40;;;;111419;1244;42332;-66
2022/01/03 07:13:04;;;;;;;;;;;;;4.60;97231.20;;;;111510;1244;41146;-68
2022/01/03 07:19:03;;;;;;;13.00;5.40;;;;;4.70;97246.00;;;;111294;1244;41153;-71
2022/01/03 07:21:56;;;;;;;14.20;6.00;;;;;4.70;97231.60;;;;111335;1243;41161;-71
2022/01/03 07:24:33;;;;;;;14.70;6.40;;;;;4.80;97211.80;;;;111294;1244;41181;-68
2022/01/03 07:27:09;;;;;;;18.30;7.00;;;;;4.80;97219.40;;;;111555;1243;41365;-72
2022/01/03 07:29:56;;;;;;;18.70;7.10;;;;;4.86;97219.00;;;;111129;1245;41266;-73
2022/01/03 07:32:37;;;;;;;16.10;6.20;;;;;4.90;97216.20;;;;111480;1244;41726;-73
2022/01/03 07:35:19;;;;;;;12.50;5.60;;;;;4.90;97231.40;;;;111541;1243;41186;-75
2022/01/03 07:38:04;;;;;;;13.30;5.70;;;;;4.92;97230.40;;;;111509;1244;41265;-72
2022/01/03 07:40:43;;;;;;;13.00;5.70;;;;;5.00;97233.20;;;;111091;1245;41149;-66
2022/01/03 07:43:18;;;;;;;19.30;5.70;;;;;5.00;97211.00;;;;111277;1244;41173;-74
2022/01/03 07:46:00;;;;;;;11.50;5.10;;;;;5.02;97227.20;;;;111443;1243;41258;-71
2022/01/03 07:49:00;;;;;;;11.90;5.10;;;;;5.10;97217.20;;;;111495;1243;41682;-68
2022/01/03 07:51:41;;;;;;;11.80;5.20;;;;;5.10;97213.60;;;;111573;1244;41375;-65
2022/01/03 07:54:17;;;;;;;12.20;4.70;;;;;5.20;97212.60;;;;111477;1244;41257;-72
2022/01/03 07:56:50;;;;;;;15.70;5.90;;;;;5.22;97194.20;;;;111158;1244;41258;-70
2022/01/03 07:59:19;;;;;;;12.00;5.40;;;;;5.30;97176.20;;;;111673;1241;41133;-65
2022/01/03 08:01:48;;;;;;;12.60;5.80;;;;;5.40;97209.80;;;;111781;1241;41246;-72
2022/01/03 08:04:18;;;;;;;15.70;6.40;;;;;5.40;97197.80;;;;111789;1244;42158;-65
2022/01/03 08:06:47;;;;;;;12.80;5.30;;;;;5.40;97189.80;;;;111753;1242;41617;-69
2022/01/03 08:09:16;;;;;;;12.00;5.30;;;;;5.40;97175.00;;;;111683;1243;41142;-68
2022/01/03 08:11:46;;;;;;;14.10;6.00;;;;;5.44;97175.60;;;;111668;1241;41958;-65
2022/01/03 08:14:15;;;;;;;15.10;5.80;;;;;5.46;97187.80;;;;111718;1241;41164;-69
2022/01/03 08:16:44;;;;;;;11.00;4.90;;;;;5.50;97184.80;;;;111657;1241;42143;-69
2022/01/03 08:19:14;;;;;;;11.10;4.50;;;;;5.50;97197.80;;;;111803;1241;41365;-66
2022/01/03 08:21:43;;;;;;;11.50;4.80;;;;;5.60;97191.60;;;;111747;1241;41830;-69
2022/01/03 08:24:12;;;;;;;12.60;5.70;;;;;5.60;97178.00;;;;111516;1243;42564;-72
2022/01/03 08:26:41;;;;;;;12.00;5.10;;;;;5.70;97170.20;;;;111749;1241;42191;-73
2022/01/03 08:29:11;;;;;;;11.60;5.30;;;;;5.70;97164.00;;;;111480;1244;41198;-68
2022/01/03 08:31:40;;;;;;;15.20;5.50;;;;;5.78;97176.80;;;;111728;1241;41149;-69
2022/01/03 08:34:09;;;;;;;13.40;5.80;;;;;5.80;97175.20;;;;111773;1242;42325;-65
2022/01/03 08:36:41;;;;;;;14.10;5.80;;;;;5.80;97181.60;;;;111770;1241;41366;-71
2022/01/03 08:39:11;;;;;;;13.20;5.60;;;;;5.70;97164.00;;;;111748;1241;41572;-70
2022/01/03 08:41:41;;;;;;;15.10;6.50;;;;;5.70;97159.00;;;;111812;1241;42055;-68
2022/01/03 08:44:10;;;;;;;13.90;6.20;;;;;5.70;97153.80;;;;111790;1241;41932;-66
2022/01/03 08:46:40;;;;;;;16.50;7.10;;;;;5.60;97159.00;;;;111619;1244;42357;-68
2022/01/03 08:49:10;;;;;;;18.40;7.10;;;;;5.60;97156.60;;;;111764;1243;41257;-68
2022/01/03 08:51:40;;;;;;;18.40;6.10;;;;;5.66;97155.80;;;;111520;1244;41339;-72
2022/01/03 08:54:09;;;;;;;14.70;5.50;;;;;5.70;97149.00;;;;111529;1243;41174;-69
2022/01/03 08:56:39;;;;;;;14.30;6.20;;;;;5.70;97153.60;;;;111791;1242;41317;-66
2022/01/03 08:59:08;;;;;;;13.20;5.40;;;;;5.76;97159.00;;;;110513;1244;1354840;-68
2022/01/03 09:01:37;;;;;;;14.80;6.60;;;;;5.80;97150.40;;;;111535;1244;41254;-70
2022/01/03 09:04:06;;;;;;;15.40;6.80;;;;;5.80;97150.40;;;;111478;1243;41567;-68
2022/01/03 09:06:36;;;;;;;15.40;6.50;;;;;5.86;97151.00;;;;111755;1241;41268;-67
2022/01/03 09:09:08;;;;;;;15.00;6.80;;;;;5.90;97154.60;;;;111783;1241;41154;-71
2022/01/03 09:11:37;;;;;;;16.10;6.90;;;;;6.00;97160.40;;;;111666;1241;41177;-69
2022/01/03 09:14:06;;;;;;;16.00;7.50;;;;;6.00;97156.40;;;;111804;1242;41711;-71
2022/01/03 09:16:36;;;;;;;17.80;7.00;;;;;6.00;97168.00;;;;111739;1242;41528;-71
2022/01/03 09:19:05;;;;;;;14.70;7.30;;;;;6.04;97155.40;;;;111700;1241;41966;-69
2022/01/03 09:21:34;;;;;;;16.40;7.60;;;;;6.10;97157.20;;;;111690;1241;42470;-71
2022/01/03 09:29:35;;;;;;;17.80;7.80;;;;;6.10;97153.80;;;;111588;1243;41131;-68
2022/01/03 09:32:06;;;;;;;18.00;7.50;;;;;6.10;97161.00;;;;111685;1243;41137;-70
2022/01/03 09:34:35;;;;;;;16.20;7.50;;;;;6.10;97147.60;;;;111449;1243;42109;-69
2022/01/03 09:37:05;;;;;;;14.20;6.70;;;;;6.18;97148.00;;;;111800;1241;41256;-71
2022/01/03 09:39:34;;;;;;;15.20;7.00;;;;;6.20;97151.80;;;;111774;1241;42056;-67
2022/01/03 09:42:07;;;;;;;16.80;6.70;;;;;6.20;97153.00;;;;111765;1241;41138;-68
2022/01/03 09:44:36;;;;;;;16.60;7.40;;;;;6.30;97149.00;;;;111670;1242;41900;-65
2022/01/03 09:47:06;;;;;;;15.80;7.00;;;;;6.30;97152.00;;;;111702;1241;42262;-66
2022/01/03 09:49:38;;;;;;;15.00;7.50;;;;;6.30;97144.80;;;;111724;1241;41263;-64
2022/01/03 09:52:07;;;;;;;16.80;7.90;;;;;6.30;97143.80;;;;111914;1241;41144;-66
2022/01/03 09:54:38;;;;;;;15.20;7.40;;;;;6.30;97145.60;;;;111521;1241;41117;-68
2022/01/03 09:57:07;;;;;;;17.20;8.40;;;;;6.30;97148.40;;;;111818;1241;41153;-70
2022/01/03 09:59:37;;;;;;;17.30;7.90;;;;;6.30;97133.20;;;;111727;1241;41621;-67
2022/01/03 10:02:06;;;;;;;21.00;9.10;;;;;6.38;97142.60;;;;111789;1241;41201;-65
2022/01/03 10:04:36;;;;;;;21.40;10.70;;;;;6.40;97137.00;;;;111674;1241;43722;-67
2022/01/03 10:07:10;;;;;;;18.10;8.60;;;;;6.40;97144.80;;;;111716;1241;41144;-69
2022/01/03 10:09:39;;;;;;;17.70;8.50;;;;;6.40;97134.80;;;;111772;1242;41638;-66
2022/01/03 10:12:11;;;;;;;17.00;7.80;;;;;6.40;97129.60;;;;111802;1241;41205;-67
2022/01/03 10:14:41;;;;;;;18.00;8.50;;;;;6.40;97121.80;;;;111541;1241;41870;-69
2022/01/03 10:17:11;;;;;;;17.70;8.60;;;;;6.44;97115.00;;;;111489;1241;42353;-69
2022/01/03 10:19:54;;;;;;;19.90;8.90;;;;;6.52;97098.60;;;;111722;1241;42389;-68
2022/01/03 10:22:31;;;;;;;19.90;8.90;;;;;6.70;97087.40;;;;111741;1241;41154;-68
2022/01/03 10:25:11;;;;;;;16.20;7.60;;;;;6.76;97078.80;;;;111732;1241;41144;-62
2022/01/03 10:27:55;;;;;;;16.40;7.80;;;;;6.90;97072.40;;;;111704;1241;41907;-71
2022/01/03 10:30:43;;;;;;;18.50;8.50;;;;;6.90;97063.80;;;;111828;1241;41626;-68
2022/01/03 10:33:21;;;;;;;16.40;7.50;;;;;6.90;97074.00;;;;111861;1241;41949;-67
2022/01/03 10:35:52;;;;;;;18.50;7.80;;;;;6.92;97072.00;;;;111859;1241;41144;-70
2022/01/03 10:38:41;;;;;;;16.90;7.80;;;;;7.00;97070.60;;;;111819;1241;41113;-67
2022/01/03 10:41:18;;;;;;;17.10;7.90;;;;;7.02;97071.40;;;;111586;1241;40940;-70
2022/01/03 10:43:51;;;;;;;16.60;8.20;;;;;7.10;97077.60;;;;111706;1243;41943;-67
2022/01/03 10:46:22;;;;;;;16.60;8.10;;;;;7.10;97078.40;;;;111837;1241;41939;-68
2022/01/03 10:49:08;;;;;;;16.90;7.80;;;;;7.10;97074.60;;;;111797;1241;41165;-68
2022/01/03 10:51:37;;;;;;;18.10;8.50;;;;;7.10;97063.40;;;;111769;1243;41117;-67
2022/01/03 10:54:11;;;;;;;17.10;8.20;;;;;7.10;97072.40;;;;111796;1241;41171;-67
2022/01/03 10:56:42;;;;;;;16.00;8.10;;;;;7.12;97074.20;;;;111780;1243;41946;-70
2022/01/03 10:59:14;;;;;;;17.40;7.70;;;;;7.20;97076.20;;;;111438;1242;42413;-66
2022/01/03 11:01:46;;;;;;;16.30;7.80;;;;;7.20;97089.00;;;;111678;1241;41250;-66
2022/01/03 11:04:36;;;;;;;16.00;7.80;;;;;7.30;97082.60;;;;111730;1241;41729;-69
2022/01/03 11:13:12;;;;;;;14.20;7.40;;;;;7.70;97079.60;;;;111792;1241;42290;-69
2022/01/03 11:16:05;;;;;;;14.70;7.00;;;;;7.80;97096.00;;;;111778;1241;41702;-66
2022/01/03 11:18:37;;;;;;;16.30;7.20;;;;;8.00;97116.80;;;;111821;1242;41300;-71
2022/01/03 11:21:19;;;;;;;14.50;7.20;;;;;8.04;97112.20;;;;111780;1241;41814;-69
2022/01/03 11:24:09;;;;;;;16.10;7.60;;;;;8.10;97108.20;;;;111709;1242;41826;-71
2022/01/03 11:26:47;;;;;;;13.60;6.60;;;;;8.10;97102.00;;;;111691;1243;42287;-73
2022/01/03 11:29:17;;;;;;;14.90;7.00;;;;;8.10;97107.40;;;;111840;1241;42188;-70
2022/01/03 11:31:50;;;;;;;14.30;7.10;;;;;8.10;97104.40;;;;111473;1243;41167;-68
2022/01/03 11:34:24;;;;;;;15.80;7.40;;;;;8.20;97118.40;;;;111355;1244;41153;-69
2022/01/03 11:37:00;;;;;;;14.40;7.50;;;;;8.20;97104.60;;;;111758;1242;41706;-71
2022/01/03 11:39:32;;;;;;;16.20;8.80;;;;;8.16;97098.20;;;;111894;1242;41982;-69
2022/01/03 11:42:02;;;;;;;19.10;9.90;;;;;8.10;97106.60;;;;111774;1242;41155;-66
2022/01/03 11:44:32;;;;;;;16.30;8.00;;;;;7.96;97101.40;;;;111559;1244;41269;-67
2022/01/03 11:47:02;;;;;;;16.70;7.60;;;;;7.80;97111.40;;;;111521;1242;42051;-70
2022/01/03 11:49:32;;;;;;;17.00;8.10;;;;;7.80;97112.60;;;;111866;1241;41242;-67
2022/01/03 11:52:07;;;;;;;16.40;8.20;;;;;7.68;97104.00;;;;111691;1241;41799;-65
2022/01/03 11:54:37;;;;;;;16.30;7.80;;;;;7.50;97099.80;;;;111818;1241;41127;-66
2022/01/03 11:57:18;;;;;;;16.90;8.20;;;;;7.50;97106.20;;;;111590;1244;42167;-64
2022/01/03 12:05:52;;;;;;;15.00;7.10;;;;;7.20;97064.20;;;;111853;1241;41584;-66
2022/01/03 12:08:38;;;;;;;20.60;10.40;;;;;7.20;97058.80;;;;111536;1244;41147;-68
2022/01/03 12:11:19;;;;;;;21.30;10.10;;;;;7.16;97055.00;;;;111787;1241;41128;-67
2022/01/03 12:13:52;;;;;;;18.60;9.30;;;;;7.00;97056.80;;;;111796;1241;41936;-69
2022/01/03 12:16:44;;;;;;;17.80;8.40;;;;;7.00;97059.20;;;;111770;1241;41887;-64
2022/01/03 12:19:36;;;;;;;18.80;9.30;;;;;6.90;97067.00;;;;111785;1242;41125;-66
2022/01/03 12:22:23;;;;;;;21.40;9.60;;;;;6.90;97073.60;;;;111651;1242;41120;-67
2022/01/03 12:24:55;;;;;;;18.30;9.00;;;;;6.90;97064.00;;;;111820;1243;42230;-65
2022/01/03 12:27:25;;;;;;;17.00;8.20;;;;;6.80;97065.80;;;;111871;1241;41312;-69
2022/01/03 12:29:54;;;;;;;19.00;9.70;;;;;6.80;97064.60;;;;111878;1241;41133;-67
2022/01/03 12:32:27;;;;;;;21.20;10.90;;;;;6.80;97065.00;;;;111585;1244;41149;-66
2022/01/03 12:35:20;;;;;;;21.80;12.00;;;;;6.80;97069.20;;;;111863;1241;41550;-66
2022/01/03 12:37:49;;;;;;;20.80;10.50;;;;;6.74;97063.60;;;;111824;1240;41621;-67
2022/01/03 12:40:27;;;;;;;22.00;10.90;;;;;6.80;97063.20;;;;111844;1241;41455;-67
2022/01/03 12:43:05;;;;;;;21.10;11.50;;;;;6.80;97060.20;;;;111907;1241;42201;-69
2022/01/03 12:45:44;;;;;;;22.50;11.50;;;;;6.80;97058.60;;;;111440;1244;41380;-65
2022/01/03 12:48:15;;;;;;;20.20;10.50;;;;;6.82;97058.20;;;;111666;1241;41626;-65
2022/01/03 12:50:53;;;;;;;19.30;10.10;;;;;6.90;97057.00;;;;111536;1243;41614;-66
2022/01/03 12:53:28;;;;;;;23.40;12.20;;;;;6.90;97056.20;;;;111606;1243;41246;-67
2022/01/03 12:56:00;;;;;;;22.60;11.00;;;;;6.90;97049.20;;;;111788;1241;41462;-69
2022/01/03 12:58:29;;;;;;;19.60;10.50;;;;;6.90;97044.00;;;;111758;1243;41246;-67
2022/01/03 13:01:12;;;;;;;20.70;10.50;;;;;6.90;97049.40;;;;111824;1242;41524;-70
2022/01/03 13:04:20;;;;;;;20.90;10.70;;;;;6.90;97053.80;;;;111480;1243;41287;-71
2022/01/03 13:06:49;;;;;;;21.90;11.40;;;;;6.90;97046.00;;;;110830;1251;41710;-67
2022/01/03 13:09:18;;;;;;;23.20;11.40;;;;;6.92;97043.40;;;;110489;1252;42562;-67
2022/01/03 13:11:49;;;;;;;18.80;9.10;;;;;6.90;97052.40;;;;110775;1249;41187;-68
2022/01/03 13:14:22;;;;;;;23.00;11.50;;;;;6.96;97046.80;;;;110672;1251;41286;-69
2022/01/03 13:16:56;;;;;;;26.10;12.80;;;;;7.00;97052.20;;;;110584;1252;42217;-70
2022/01/03 13:19:27;;;;;;;24.10;12.00;;;;;7.00;97057.40;;;;110686;1251;41975;-69
2022/01/03 13:22:01;;;;;;;23.90;12.30;;;;;7.00;97062.60;;;;110814;1249;41329;-71
2022/01/03 13:24:45;;;;;;;22.70;11.20;;;;;7.00;97064.60;;;;110823;1250;41250;-70